Time;durP1;ratioP1;P1;durP2;ratioP2;P2;SDS_P1;SDS_P2;PMS_P1;PMS_P2;Temp;Humidity;BMP_temperature;BMP_pressure;BME280_temperature;BME280_humidity;BME280_pressure;Samples;Min_cycle;Max_cycle;Signal;HPM_P1;HPM_P2
2022/07/23 00:00:10;;;;;;;11.65;5.32;;;;;;;23.63;74.22;96396.78;5039322;28;20201;-69
2022/07/23 00:02:37;;;;;;;9.82;5.68;;;;;;;23.44;77.50;96401.69;5039138;28;20653;-68
2022/07/23 00:05:04;;;;;;;8.77;5.85;;;;;;;23.26;80.83;96397.72;5039640;28;20200;-68
2022/07/23 00:07:31;;;;;;;14.15;6.68;;;;;;;23.33;81.16;96389.19;5039600;28;20205;-68
2022/07/23 00:09:57;;;;;;;9.57;6.22;;;;;;;23.40;79.97;96389.00;5039399;28;20653;-68
2022/07/23 00:12:24;;;;;;;10.77;6.18;;;;;;;23.50;79.05;96384.53;5038925;28;20240;-68
2022/07/23 00:14:52;;;;;;;10.20;5.78;;;;;;;23.70;78.35;96390.16;5039222;28;20205;-68
2022/07/23 00:17:19;;;;;;;9.50;5.47;;;;;;;23.60;78.39;96400.78;5038850;28;20202;-69
2022/07/23 00:19:45;;;;;;;11.68;5.47;;;;;;;23.58;77.92;96397.53;5039643;28;20209;-68
2022/07/23 00:22:12;;;;;;;10.93;6.13;;;;;;;23.53;78.81;96404.75;5038781;28;20236;-69
2022/07/23 00:24:38;;;;;;;11.40;6.10;;;;;;;23.50;81.62;96413.34;5036444;28;20205;-68
2022/07/23 00:27:05;;;;;;;10.13;5.57;;;;;;;23.22;83.71;96426.16;5039012;28;20216;-68
2022/07/23 00:29:31;;;;;;;10.15;5.60;;;;;;;23.15;82.58;96420.97;5039720;28;20685;-68
2022/07/23 00:31:59;;;;;;;12.77;5.75;;;;;;;23.34;90.10;96406.97;5038952;28;20225;-69
2022/07/23 00:34:26;;;;;;;12.70;6.03;;;;;;;23.20;94.74;96393.34;5038053;28;20205;-69
2022/07/23 00:36:53;;;;;;;10.52;6.55;;;;;;;23.09;95.74;96378.13;5039040;28;20652;-69
2022/07/23 00:39:20;;;;;;;11.80;6.57;;;;;;;23.00;96.01;96379.63;5039046;28;20313;-68
2022/07/23 00:41:47;;;;;;;10.55;6.55;;;;;;;22.64;100.00;96365.97;5038223;28;20221;-69
2022/07/23 00:44:19;;;;;;;13.85;7.00;;;;;;;22.58;100.00;96373.16;5037733;28;20212;-69
2022/07/23 00:46:52;;;;;;;13.40;6.72;;;;;;;22.37;100.00;96365.84;5038421;28;20853;-68
2022/07/23 00:49:21;;;;;;;15.60;7.00;;;;;;;22.22;100.00;96373.69;5038412;28;20692;-68
2022/07/23 00:51:48;;;;;;;13.27;6.60;;;;;;;22.17;100.00;96362.03;5038831;28;20237;-68
2022/07/23 00:54:15;;;;;;;10.95;6.03;;;;;;;22.19;100.00;96350.00;5037372;28;20764;-69
2022/07/23 00:56:43;;;;;;;8.52;5.40;;;;;;;22.34;100.00;96339.50;5038317;28;20212;-68
2022/07/23 00:59:10;;;;;;;16.00;5.88;;;;;;;22.19;98.98;96339.25;5038955;28;20208;-68
2022/07/23 01:01:37;;;;;;;10.45;5.38;;;;;;;22.05;96.10;96326.41;5036488;28;20302;-68
2022/07/23 01:04:04;;;;;;;9.52;5.30;;;;;;;22.13;95.23;96316.09;5037457;28;20209;-68
2022/07/23 01:06:35;;;;;;;12.60;5.28;;;;;;;22.28;95.12;96329.75;5038413;28;20205;-68
2022/07/23 01:09:02;;;;;;;9.20;5.25;;;;;;;22.22;98.62;96335.25;5038477;28;21167;-68
2022/07/23 01:11:28;;;;;;;11.13;5.50;;;;;;;21.91;100.00;96308.22;5038062;28;20217;-68
2022/07/23 01:13:55;;;;;;;7.95;4.85;;;;;;;21.75;100.00;96307.16;5037594;28;20216;-68
2022/07/23 01:16:21;;;;;;;8.10;5.13;;;;;;;21.58;100.00;96294.81;5037225;28;20205;-68
2022/07/23 01:18:48;;;;;;;11.30;4.93;;;;;;;21.45;100.00;96295.09;5038348;28;20243;-69
2022/07/23 01:21:18;;;;;;;10.93;4.82;;;;;;;21.53;99.99;96297.41;5037886;28;20236;-68
2022/07/23 01:23:46;;;;;;;9.15;4.97;;;;;;;21.66;100.00;96315.84;5033930;28;20209;-68
2022/07/23 01:26:15;;;;;;;10.23;5.30;;;;;;;21.63;100.00;96319.84;5038000;28;21174;-68
2022/07/23 01:28:42;;;;;;;7.75;4.53;;;;;;;21.63;100.00;96333.25;5038082;28;20252;-68
2022/07/23 01:31:08;;;;;;;10.82;5.07;;;;;;;21.50;100.00;96348.81;5037993;28;20316;-69
2022/07/23 01:33:35;;;;;;;11.90;5.70;;;;;;;21.69;100.00;96344.88;5036922;28;20392;-69
2022/07/23 01:36:01;;;;;;;8.75;5.28;;;;;;;21.68;100.00;96344.06;5037642;28;20209;-68
2022/07/23 01:38:28;;;;;;;9.80;5.72;;;;;;;21.67;100.00;96350.47;5038522;28;20217;-69
2022/07/23 01:40:56;;;;;;;8.55;5.20;;;;;;;21.82;100.00;96349.94;5037814;28;20344;-68
2022/07/23 01:43:22;;;;;;;7.72;5.05;;;;;;;21.55;100.00;96341.69;5036620;28;20197;-68
2022/07/23 01:45:49;;;;;;;9.38;4.90;;;;;;;21.55;100.00;96360.47;5037605;28;20216;-69
2022/07/23 01:48:16;;;;;;;9.38;5.72;;;;;;;21.43;100.00;96366.91;5037961;28;20284;-68
2022/07/23 01:50:42;;;;;;;8.10;5.22;;;;;;;21.44;100.00;96368.53;5037323;28;21429;-68
2022/07/23 01:53:09;;;;;;;10.55;5.70;;;;;;;21.51;100.00;96372.75;5037101;28;20232;-68
2022/07/23 01:55:35;;;;;;;9.70;5.82;;;;;;;21.55;100.00;96378.44;5037002;28;21023;-68
2022/07/23 01:58:03;;;;;;;12.18;6.50;;;;;;;21.65;100.00;96373.22;5037470;28;20208;-68
2022/07/23 02:00:30;;;;;;;9.35;5.85;;;;;;;21.60;100.00;96362.41;5037364;28;20212;-68
2022/07/23 02:02:58;;;;;;;12.77;6.28;;;;;;;21.64;100.00;96359.03;5036565;28;20205;-68
2022/07/23 02:05:25;;;;;;;11.93;6.47;;;;;;;21.35;100.00;96331.66;5036891;28;21199;-68
2022/07/23 02:07:52;;;;;;;14.88;6.60;;;;;;;21.30;100.00;96324.31;5037101;28;20201;-68
2022/07/23 02:10:18;;;;;;;11.60;6.20;;;;;;;21.41;100.00;96331.50;5037447;28;20322;-68
2022/07/23 02:12:45;;;;;;;10.02;6.13;;;;;;;21.38;100.00;96337.31;5036389;28;20236;-68
2022/07/23 02:15:13;;;;;;;11.48;5.38;;;;;;;21.16;100.00;96322.19;5036765;28;20692;-68
2022/07/23 02:17:40;;;;;;;13.18;6.03;;;;;;;21.29;100.00;96330.72;5036730;28;20201;-68
2022/07/23 02:20:08;;;;;;;10.65;6.18;;;;;;;21.26;100.00;96312.44;5037135;28;20217;-67
2022/07/23 02:22:34;;;;;;;14.75;7.07;;;;;;;21.19;100.00;96316.34;5035691;28;20221;-68
2022/07/23 02:25:01;;;;;;;11.57;6.38;;;;;;;21.11;100.00;96314.84;5033768;28;20211;-68
2022/07/23 02:27:28;;;;;;;12.02;7.13;;;;;;;21.27;100.00;96324.81;5037027;28;20859;-68
2022/07/23 02:29:54;;;;;;;17.00;7.40;;;;;;;21.26;100.00;96319.69;5037124;28;20274;-68
2022/07/23 02:32:22;;;;;;;13.57;6.90;;;;;;;21.28;100.00;96309.53;5036012;28;20225;-67
2022/07/23 02:34:48;;;;;;;12.13;6.72;;;;;;;21.04;100.00;96311.50;5036604;28;20212;-68
2022/07/23 02:37:15;;;;;;;11.55;6.47;;;;;;;21.22;100.00;96316.69;5036608;28;20220;-67
2022/07/23 02:39:41;;;;;;;13.77;7.13;;;;;;;21.11;100.00;96300.66;5036695;28;20201;-68
2022/07/23 02:42:08;;;;;;;12.65;6.88;;;;;;;21.21;100.00;96309.69;5036643;28;20217;-68
2022/07/23 02:44:35;;;;;;;13.63;7.15;;;;;;;21.26;100.00;96299.06;5036093;28;20680;-67
2022/07/23 02:47:01;;;;;;;12.20;6.78;;;;;;;21.24;100.00;96301.16;5035994;28;21333;-68
2022/07/23 02:49:29;;;;;;;12.55;6.30;;;;;;;21.23;100.00;96306.75;5037239;28;20209;-68
2022/07/23 02:51:56;;;;;;;11.20;6.53;;;;;;;21.20;100.00;96302.69;5037271;28;20224;-68
2022/07/23 02:54:22;;;;;;;12.18;6.60;;;;;;;21.28;100.00;96294.25;5036005;28;20209;-69
2022/07/23 02:56:50;;;;;;;11.32;7.05;;;;;;;21.32;100.00;96289.22;5035873;28;20231;-68
2022/07/23 02:59:16;;;;;;;17.50;7.00;;;;;;;21.29;100.00;96284.34;5036875;28;20208;-68
2022/07/23 03:01:43;;;;;;;11.63;6.90;;;;;;;21.38;100.00;96293.63;5036996;28;20264;-69
2022/07/23 03:04:10;;;;;;;9.93;6.32;;;;;;;21.35;100.00;96302.97;5035579;28;20208;-68
2022/07/23 03:06:38;;;;;;;11.32;6.53;;;;;;;21.33;100.00;96302.38;5038989;28;20205;-69
2022/07/23 03:09:06;;;;;;;11.57;5.97;;;;;;;21.15;100.00;96304.47;5040406;28;20204;-68
2022/07/23 03:11:33;;;;;;;11.50;6.20;;;;;;;21.24;100.00;96317.22;5040601;28;20213;-68
2022/07/23 03:13:59;;;;;;;10.63;6.40;;;;;;;21.11;100.00;96314.84;5039789;28;20225;-68
2022/07/23 03:16:26;;;;;;;11.93;6.55;;;;;;;21.23;100.00;96317.47;5040613;28;20208;-69
2022/07/23 03:18:52;;;;;;;14.38;6.43;;;;;;;21.02;100.00;96337.72;5040413;28;20216;-68
2022/07/23 03:21:19;;;;;;;11.10;5.97;;;;;;;20.93;100.00;96347.19;5040476;28;20240;-68
2022/07/23 03:23:47;;;;;;;13.25;6.25;;;;;;;20.95;100.00;96358.50;5039436;28;20210;-68
2022/07/23 03:26:13;;;;;;;11.20;6.63;;;;;;;20.78;100.00;96351.44;5039960;28;20197;-68
2022/07/23 03:28:40;;;;;;;15.82;7.00;;;;;;;20.54;100.00;96362.41;5040346;28;20209;-68
2022/07/23 03:31:06;;;;;;;14.18;6.93;;;;;;;20.75;100.00;96356.44;5040435;28;20236;-68
2022/07/23 03:33:33;;;;;;;11.70;6.43;;;;;;;20.73;100.00;96342.50;5039445;28;20236;-68
2022/07/23 03:35:59;;;;;;;13.20;7.63;;;;;;;20.98;100.00;96317.03;5039735;28;20229;-68
2022/07/23 03:38:26;;;;;;;14.63;7.38;;;;;;;20.91;100.00;96302.94;5040271;28;20224;-68
2022/07/23 03:40:54;;;;;;;15.02;7.55;;;;;;;21.02;100.00;96316.28;5039802;28;20232;-68
2022/07/23 03:43:20;;;;;;;15.48;7.53;;;;;;;20.66;100.00;96333.72;5038130;28;20499;-68
2022/07/23 03:45:46;;;;;;;15.10;8.00;;;;;;;20.59;100.00;96327.69;5039380;28;20216;-68
2022/07/23 03:48:13;;;;;;;13.85;7.35;;;;;;;20.88;100.00;96325.66;5038989;28;20209;-68
2022/07/23 03:50:39;;;;;;;11.48;7.00;;;;;;;20.86;100.00;96329.63;5038848;28;20217;-67
2022/07/23 03:53:06;;;;;;;11.20;6.97;;;;;;;20.80;100.00;96332.44;5038879;28;20228;-68
2022/07/23 03:55:32;;;;;;;18.08;7.03;;;;;;;20.83;100.00;96333.59;5039141;28;20201;-68
2022/07/23 03:58:00;;;;;;;15.07;7.55;;;;;;;21.10;100.00;96342.69;5039106;28;20205;-68
2022/07/23 04:00:27;;;;;;;14.40;6.60;;;;;;;21.09;100.00;96335.72;5039509;28;20558;-68
2022/07/23 04:02:53;;;;;;;13.25;7.10;;;;;;;21.09;100.00;96342.94;5038982;28;20221;-67
2022/07/23 04:05:19;;;;;;;14.32;7.35;;;;;;;21.03;100.00;96334.00;5039247;28;20205;-67
2022/07/23 04:07:46;;;;;;;11.10;7.20;;;;;;;20.92;100.00;96308.03;5038837;28;20205;-68
2022/07/23 04:10:12;;;;;;;13.63;7.72;;;;;;;21.09;100.00;96308.94;5039756;28;20197;-67
2022/07/23 04:12:39;;;;;;;13.73;7.57;;;;;;;21.07;100.00;96315.59;5039168;28;20232;-68
2022/07/23 04:15:08;;;;;;;14.68;7.53;;;;;;;20.82;100.00;96331.16;5039018;28;20212;-68
2022/07/23 04:17:35;;;;;;;11.70;6.97;;;;;;;20.79;100.00;96346.91;5039173;28;20205;-67
2022/07/23 04:20:01;;;;;;;14.80;7.60;;;;;;;20.66;100.00;96350.63;5039200;28;20220;-67
2022/07/23 04:22:28;;;;;;;16.33;7.32;;;;;;;20.65;100.00;96332.91;5038302;28;20217;-67
2022/07/23 04:24:54;;;;;;;16.92;7.15;;;;;;;20.83;100.00;96314.84;5039131;28;20973;-67
2022/07/23 04:27:22;;;;;;;14.00;7.70;;;;;;;20.83;100.00;96325.56;5039246;28;20204;-67
2022/07/23 04:29:48;;;;;;;11.50;7.20;;;;;;;20.60;100.00;96326.66;5039071;28;20205;-67
2022/07/23 04:32:16;;;;;;;12.15;6.95;;;;;;;20.82;100.00;96306.25;5038507;28;21130;-67
2022/07/23 04:34:42;;;;;;;11.40;7.20;;;;;;;20.75;100.00;96308.22;5038932;28;20225;-67
2022/07/23 04:37:09;;;;;;;12.20;7.00;;;;;;;20.60;100.00;96313.28;5038932;28;20205;-67
2022/07/23 04:39:35;;;;;;;13.32;7.45;;;;;;;20.60;100.00;96323.97;5038640;28;20212;-68
2022/07/23 04:42:02;;;;;;;14.07;7.20;;;;;;;20.61;100.00;96337.13;5038823;28;20713;-67
2022/07/23 04:44:28;;;;;;;15.85;7.60;;;;;;;20.64;100.00;96339.31;5038407;28;20193;-67
2022/07/23 04:46:55;;;;;;;15.75;7.25;;;;;;;20.66;100.00;96349.78;5038392;28;20217;-67
2022/07/23 04:49:22;;;;;;;15.13;7.88;;;;;;;21.04;100.00;96332.94;5038836;28;20263;-67
2022/07/23 04:51:49;;;;;;;15.00;7.88;;;;;;;20.87;100.00;96347.31;5038676;28;20221;-67
2022/07/23 04:54:17;;;;;;;14.82;7.47;;;;;;;20.60;100.00;96353.44;5037837;28;20225;-67
2022/07/23 04:56:44;;;;;;;15.55;8.05;;;;;;;20.78;100.00;96353.31;5038469;28;20732;-67
2022/07/23 04:59:10;;;;;;;12.18;7.40;;;;;;;20.66;100.00;96350.63;5038668;28;20217;-67
2022/07/23 05:01:36;;;;;;;13.57;8.30;;;;;;;20.88;100.00;96322.19;5038141;28;20217;-67
2022/07/23 05:04:03;;;;;;;17.83;7.57;;;;;;;21.03;100.00;96307.19;5038258;28;20202;-67
2022/07/23 05:06:31;;;;;;;13.38;7.97;;;;;;;21.10;100.00;96307.06;5038712;28;20201;-67
2022/07/23 05:08:57;;;;;;;14.45;8.25;;;;;;;20.95;100.00;96309.44;5037925;28;20526;-68
2022/07/23 05:11:24;;;;;;;15.88;7.93;;;;;;;20.81;100.00;96329.50;5038254;28;20305;-67
2022/07/23 05:13:51;;;;;;;13.48;7.82;;;;;;;20.80;100.00;96343.97;5038447;28;20231;-67
2022/07/23 05:16:17;;;;;;;17.10;8.18;;;;;;;20.84;100.00;96355.84;5037932;28;20969;-67
2022/07/23 05:18:44;;;;;;;15.30;7.43;;;;;;;20.93;100.00;96354.44;5038148;28;20201;-67
2022/07/23 05:21:10;;;;;;;13.75;7.35;;;;;;;20.81;100.00;96339.44;5038272;28;20241;-67
2022/07/23 05:23:38;;;;;;;20.10;8.20;;;;;;;20.96;100.00;96338.69;5037274;28;20197;-67
2022/07/23 05:26:05;;;;;;;13.95;7.93;;;;;;;21.11;100.00;96330.94;5037874;28;20255;-67
2022/07/23 05:28:31;;;;;;;15.73;8.65;;;;;;;21.21;100.00;96338.34;5037810;28;20198;-68
2022/07/23 05:30:58;;;;;;;16.80;8.10;;;;;;;21.15;100.00;96336.63;5037273;28;20228;-67
2022/07/23 05:33:24;;;;;;;15.30;8.05;;;;;;;21.33;100.00;96345.28;5037534;28;20225;-67
2022/07/23 05:35:51;;;;;;;15.25;8.70;;;;;;;21.28;100.00;96347.84;5037755;28;20201;-67
2022/07/23 05:38:17;;;;;;;16.23;7.53;;;;;;;21.37;100.00;96357.13;5038203;28;21237;-67
2022/07/23 05:40:45;;;;;;;13.32;7.47;;;;;;;21.49;100.00;96360.59;5037804;28;20205;-67
2022/07/23 05:43:11;;;;;;;15.93;7.30;;;;;;;21.56;100.00;96372.00;5036602;28;20217;-67
2022/07/23 05:45:38;;;;;;;23.75;7.65;;;;;;;21.40;100.00;96371.94;5038123;28;20320;-67
2022/07/23 05:48:05;;;;;;;16.35;6.93;;;;;;;21.34;100.00;96381.75;5037785;28;20201;-67
2022/07/23 05:50:32;;;;;;;16.25;7.00;;;;;;;20.97;100.00;96377.81;5037281;28;20197;-67
2022/07/23 05:52:59;;;;;;;15.25;6.88;;;;;;;21.00;100.00;96369.31;5036784;28;20212;-67
2022/07/23 05:55:25;;;;;;;11.55;7.30;;;;;;;21.15;100.00;96395.59;5037691;28;20208;-67
2022/07/23 05:57:53;;;;;;;15.02;7.28;;;;;;;21.17;100.00;96383.59;5037062;28;20201;-67
2022/07/23 06:00:19;;;;;;;14.35;7.18;;;;;;;21.31;100.00;96368.00;5037591;28;20201;-67
2022/07/23 06:02:46;;;;;;;11.73;6.70;;;;;;;21.38;100.00;96380.22;5036906;28;20225;-67
2022/07/23 06:05:12;;;;;;;13.13;6.00;;;;;;;21.17;100.00;96394.31;5036961;28;20200;-67
2022/07/23 06:07:39;;;;;;;14.23;6.28;;;;;;;21.08;100.00;96398.41;5037657;28;20213;-67
2022/07/23 06:10:06;;;;;;;15.02;6.32;;;;;;;21.24;100.00;96411.03;5037415;28;20213;-67
2022/07/23 06:12:32;;;;;;;9.77;5.75;;;;;;;21.22;98.62;96413.16;5036242;28;20221;-67
2022/07/23 06:15:00;;;;;;;10.85;5.90;;;;;;;21.37;99.81;96418.00;5037275;28;20239;-67
2022/07/23 06:17:27;;;;;;;11.60;6.45;;;;;;;21.31;99.97;96410.91;5037435;28;20205;-67
2022/07/23 06:19:54;;;;;;;11.32;5.78;;;;;;;21.71;99.25;96409.84;5036090;28;20220;-67
2022/07/23 06:22:21;;;;;;;14.02;6.47;;;;;;;21.83;100.00;96386.44;5036285;28;20221;-67
2022/07/23 06:24:48;;;;;;;14.43;6.13;;;;;;;21.96;100.00;96373.50;5037240;28;20202;-67
2022/07/23 06:27:14;;;;;;;14.23;6.88;;;;;;;22.05;100.00;96372.84;5036932;28;20204;-67
2022/07/23 06:29:41;;;;;;;12.52;6.47;;;;;;;21.81;99.77;96369.78;5036892;28;20216;-67
2022/07/23 06:32:09;;;;;;;11.70;6.68;;;;;;;22.04;100.00;96362.38;5036965;28;20217;-67
2022/07/23 06:34:35;;;;;;;14.93;6.82;;;;;;;21.88;100.00;96371.25;5036201;28;20593;-67
2022/07/23 06:37:02;;;;;;;11.60;5.55;;;;;;;21.54;96.02;96374.13;5036643;28;20208;-68
2022/07/23 06:39:28;;;;;;;10.30;6.53;;;;;;;21.50;98.26;96370.28;5037360;28;20201;-67
2022/07/23 06:41:55;;;;;;;18.42;6.57;;;;;;;21.51;97.71;96364.69;5035715;28;20224;-67
2022/07/23 06:44:21;;;;;;;12.63;6.28;;;;;;;21.88;98.25;96355.16;5036100;28;20201;-67
2022/07/23 06:46:48;;;;;;;15.60;7.00;;;;;;;22.03;96.55;96358.06;5037296;28;20216;-67
2022/07/23 06:49:15;;;;;;;13.45;7.18;;;;;;;22.00;97.48;96363.91;5036687;28;20205;-68
2022/07/23 06:51:42;;;;;;;16.10;6.95;;;;;;;22.12;97.51;96362.78;5036309;28;20624;-67
2022/07/23 06:54:08;;;;;;;13.77;6.97;;;;;;;22.17;96.49;96360.19;5035836;28;20228;-67
2022/07/23 06:56:35;;;;;;;18.63;7.13;;;;;;;22.23;94.95;96361.84;5037481;28;20197;-68
2022/07/23 06:59:01;;;;;;;11.20;6.65;;;;;;;22.30;98.28;96350.97;5036483;28;20201;-67
2022/07/23 07:01:28;;;;;;;15.77;7.25;;;;;;;22.07;92.24;96370.75;5036423;28;20225;-68
2022/07/23 07:03:54;;;;;;;10.32;6.93;;;;;;;21.92;92.41;96369.69;5035516;28;20210;-67
2022/07/23 07:06:22;;;;;;;12.65;7.05;;;;;;;22.13;92.46;96369.78;5036912;28;20201;-67
2022/07/23 07:08:48;;;;;;;10.93;6.20;;;;;;;22.15;89.88;96375.69;5036389;28;20825;-68
2022/07/23 07:11:15;;;;;;;15.95;6.75;;;;;;;22.11;90.18;96371.88;5036418;28;20575;-68
2022/07/23 07:13:41;;;;;;;10.02;6.22;;;;;;;22.31;91.21;96372.25;5035671;28;20225;-67
2022/07/23 07:16:08;;;;;;;12.02;6.80;;;;;;;22.22;89.12;96384.41;5036033;28;20197;-68
2022/07/23 07:18:34;;;;;;;10.40;6.85;;;;;;;22.26;91.83;96393.63;5036290;28;20201;-67
2022/07/23 07:21:01;;;;;;;12.93;7.32;;;;;;;22.14;94.54;96405.47;5036181;28;20248;-68
2022/07/23 07:23:28;;;;;;;13.30;6.68;;;;;;;21.91;91.97;96408.31;5035913;28;20197;-67
2022/07/23 07:25:55;;;;;;;15.27;6.85;;;;;;;22.01;92.17;96411.19;5036458;28;20205;-67
2022/07/23 07:28:21;;;;;;;15.75;7.10;;;;;;;21.66;96.17;96417.78;5036588;28;20224;-68
2022/07/23 07:30:48;;;;;;;16.02;7.18;;;;;;;21.87;93.26;96422.44;5035834;28;20223;-68
2022/07/23 07:33:14;;;;;;;13.65;6.90;;;;;;;21.95;92.74;96414.81;5035488;28;21135;-67
2022/07/23 07:35:41;;;;;;;13.10;6.50;;;;;;;22.01;93.12;96421.91;5036169;28;20252;-67
2022/07/23 07:38:07;;;;;;;13.73;7.28;;;;;;;22.07;91.24;96428.97;5036377;28;20204;-67
2022/07/23 07:40:35;;;;;;;13.27;6.78;;;;;;;22.41;90.52;96428.75;5036302;28;20206;-67
2022/07/23 07:43:03;;;;;;;12.45;6.97;;;;;;;22.51;88.67;96441.56;5035607;28;20205;-68
2022/07/23 07:45:29;;;;;;;12.23;6.35;;;;;;;22.94;89.91;96451.31;5036132;28;20197;-69
2022/07/23 07:47:57;;;;;;;15.63;7.22;;;;;;;22.81;88.83;96442.78;5036012;28;20213;-69
2022/07/23 07:50:24;;;;;;;12.13;6.25;;;;;;;23.02;87.74;96444.72;5036309;28;20204;-68
2022/07/23 07:52:50;;;;;;;10.60;6.78;;;;;;;23.13;86.13;96447.31;5037223;28;20240;-68
2022/07/23 07:55:17;;;;;;;12.80;6.00;;;;;;;23.02;85.59;96439.34;5038033;28;20719;-68
2022/07/23 07:57:45;;;;;;;15.30;6.43;;;;;;;23.23;86.86;96433.16;5039780;28;20205;-68
2022/07/23 08:00:12;;;;;;;17.45;6.53;;;;;;;23.36;87.52;96425.53;5039046;28;20592;-68
2022/07/23 08:02:46;;;;;;;12.40;6.97;;;;;;;23.68;84.77;96438.00;5036751;28;20724;-69
2022/07/23 08:05:14;;;;;;;11.82;6.03;;;;;;;23.50;84.47;96462.56;5038496;28;20545;-69
2022/07/23 08:07:41;;;;;;;14.18;6.28;;;;;;;23.59;83.06;96461.03;5039530;28;20213;-69
2022/07/23 08:10:09;;;;;;;10.60;5.82;;;;;;;23.74;84.15;96458.56;5038804;28;20371;-68
2022/07/23 08:12:41;;;;;;;11.02;6.20;;;;;;;24.11;82.90;96468.34;5037741;28;20487;-68
2022/07/23 08:15:10;;;;;;;9.25;5.20;;;;;;;23.79;81.81;96469.38;5039122;28;20265;-69
2022/07/23 08:17:36;;;;;;;11.90;5.97;;;;;;;23.83;82.40;96473.19;5038650;28;20531;-69
2022/07/23 08:20:04;;;;;;;10.70;5.90;;;;;;;23.72;82.10;96468.75;5038972;28;20236;-69
2022/07/23 08:22:43;;;;;;;15.10;6.10;;;;;;;24.04;80.95;96475.00;5038195;28;20312;-69
2022/07/23 08:25:10;;;;;;;10.10;5.32;;;;;;;24.05;80.58;96468.56;5038885;28;20228;-70
2022/07/23 08:27:36;;;;;;;11.30;5.82;;;;;;;24.10;80.41;96469.41;5038225;28;20572;-69
2022/07/23 08:30:03;;;;;;;10.80;6.15;;;;;;;24.37;79.71;96474.78;5038312;28;20729;-69
2022/07/23 08:32:31;;;;;;;10.88;5.72;;;;;;;24.72;78.31;96465.94;5037967;28;20221;-69
2022/07/23 08:34:57;;;;;;;8.32;4.82;;;;;;;24.51;75.80;96470.63;5038355;28;20225;-70
2022/07/23 08:37:24;;;;;;;10.05;5.30;;;;;;;24.60;76.60;96468.00;5038559;28;20490;-68
2022/07/23 08:39:50;;;;;;;7.40;4.72;;;;;;;24.92;75.59;96473.34;5038523;28;20201;-69
2022/07/23 08:42:17;;;;;;;7.90;5.20;;;;;;;24.97;75.65;96470.69;5037378;28;20217;-68
2022/07/23 08:44:46;;;;;;;8.73;5.15;;;;;;;25.30;76.42;96458.47;5038329;28;20198;-69
2022/07/23 08:47:13;;;;;;;9.32;5.25;;;;;;;25.00;73.38;96460.19;5038299;28;20237;-69
2022/07/23 08:49:42;;;;;;;9.60;5.00;;;;;;;25.13;75.12;96459.75;5038506;28;20212;-68
2022/07/23 08:52:09;;;;;;;10.80;5.38;;;;;;;24.95;75.18;96460.16;5037791;28;20221;-69
2022/07/23 08:54:36;;;;;;;8.60;5.13;;;;;;;25.20;75.08;96463.00;5037261;28;20232;-68
2022/07/23 08:57:02;;;;;;;7.47;5.05;;;;;;;25.55;73.71;96465.88;5038118;28;20209;-69
2022/07/23 08:59:32;;;;;;;10.35;5.13;;;;;;;25.42;72.69;96466.34;5037995;28;20939;-69
2022/07/23 09:02:00;;;;;;;9.65;4.90;;;;;;;25.80;73.04;96461.38;5037920;28;20411;-69
2022/07/23 09:04:26;;;;;;;10.07;4.65;;;;;;;25.67;73.52;96463.75;5036414;28;20240;-69
2022/07/23 09:06:55;;;;;;;9.98;4.53;;;;;;;25.90;71.98;96470.34;5037732;28;20639;-69
2022/07/23 09:09:22;;;;;;;10.32;4.28;;;;;;;26.00;71.24;96464.94;5037740;28;20205;-69
2022/07/23 09:12:02;;;;;;;14.07;4.85;;;;;;;26.13;68.58;96471.72;5037536;28;20589;-68
2022/07/23 09:14:37;;;;;;;7.88;4.20;;;;;;;25.84;71.05;96471.41;5036912;28;20225;-69
2022/07/23 09:17:09;;;;;;;8.45;5.07;;;;;;;25.81;70.24;96463.03;5037775;28;20520;-69
2022/07/23 09:19:36;;;;;;;9.45;4.93;;;;;;;25.84;70.74;96457.91;5037768;28;20326;-67
2022/07/23 09:22:20;;;;;;;7.32;3.40;;;;;;;25.92;70.47;96457.38;5037293;28;20225;-69
2022/07/23 09:25:05;;;;;;;6.57;4.22;;;;;;;25.94;70.21;96460.63;5037110;28;20209;-69
2022/07/23 09:27:54;;;;;;;9.45;5.03;;;;;;;25.96;69.62;96447.66;5038471;28;20220;-68
2022/07/23 09:30:22;;;;;;;9.30;4.68;;;;;;;26.06;69.89;96453.09;5037224;28;20208;-69
2022/07/23 09:33:09;;;;;;;13.30;5.53;;;;;;;26.63;67.17;96448.28;5036499;28;20229;-69
2022/07/23 09:35:50;;;;;;;8.93;4.70;;;;;;;26.89;69.13;96449.88;5037233;28;20221;-69
2022/07/23 09:38:19;;;;;;;9.52;5.20;;;;;;;26.72;66.90;96436.66;5037735;28;20594;-69
2022/07/23 09:40:47;;;;;;;6.20;3.90;;;;;;;26.70;67.33;96440.69;5037359;28;20201;-69
2022/07/23 09:43:26;;;;;;;6.60;4.50;;;;;;;26.82;66.99;96449.31;5036368;28;20680;-69
2022/07/23 09:45:53;;;;;;;9.02;5.32;;;;;;;26.19;68.58;96444.44;5036882;28;20232;-69
2022/07/23 09:48:19;;;;;;;11.23;5.25;;;;;;;25.94;69.56;96449.00;5036880;28;20212;-68
2022/07/23 09:50:46;;;;;;;9.82;5.95;;;;;;;25.98;69.97;96441.97;5037125;28;20557;-68
2022/07/23 09:53:25;;;;;;;9.60;5.28;;;;;;;26.71;69.94;96450.44;5036008;28;20542;-69
2022/07/23 09:55:56;;;;;;;18.60;5.10;;;;;;;26.29;69.77;96440.97;5037088;28;20318;-69
2022/07/23 09:58:25;;;;;;;9.40;5.43;;;;;;;26.37;68.82;96445.84;5037079;28;20216;-68
2022/07/23 10:00:53;;;;;;;8.32;5.40;;;;;;;26.63;69.60;96446.38;5036656;28;20239;-69
2022/07/23 10:03:21;;;;;;;9.10;5.28;;;;;;;27.39;68.03;96440.56;5036073;28;20208;-69
2022/07/23 10:05:47;;;;;;;7.63;5.07;;;;;;;27.34;66.84;96440.59;5036772;28;20658;-70
2022/07/23 10:08:17;;;;;;;10.52;5.10;;;;;;;27.72;65.50;96443.44;5035935;28;20366;-69
2022/07/23 10:10:46;;;;;;;9.82;5.72;;;;;;;27.78;64.90;96447.69;5036727;28;20674;-69
2022/07/23 10:15:58;;;;;;;9.60;5.28;;;;;;;27.11;65.47;96446.59;5036015;28;20282;-68
2022/07/23 10:18:25;;;;;;;10.10;5.75;;;;;;;27.12;68.14;96439.28;5036810;28;20201;-69
2022/07/23 10:20:52;;;;;;;7.55;4.78;;;;;;;26.95;66.26;96440.66;5036105;28;20272;-68
2022/07/23 10:23:25;;;;;;;9.07;5.55;;;;;;;26.92;67.80;96435.78;5036071;28;20277;-68
2022/07/23 10:25:59;;;;;;;10.43;6.40;;;;;;;26.92;69.17;96436.63;5035870;28;20212;-69
2022/07/23 10:28:43;;;;;;;8.30;5.35;;;;;;;27.02;68.82;96441.22;5036949;28;20211;-69
2022/07/23 10:31:22;;;;;;;8.38;5.57;;;;;;;26.84;67.65;96439.06;5035981;28;20385;-69
2022/07/23 10:33:57;;;;;;;9.70;6.00;;;;;;;26.91;69.31;96428.75;5035065;28;20274;-69
2022/07/23 10:36:30;;;;;;;8.63;5.90;;;;;;;27.28;69.21;96419.22;5036977;28;20220;-69
2022/07/23 10:39:03;;;;;;;8.52;6.03;;;;;;;27.52;67.57;96417.47;5035649;28;20220;-69
2022/07/23 10:41:35;;;;;;;9.45;6.07;;;;;;;27.36;66.37;96414.03;5036036;28;20225;-69
2022/07/23 10:44:10;;;;;;;8.20;5.80;;;;;;;27.48;67.33;96413.72;5035892;28;20594;-69
2022/07/23 10:46:43;;;;;;;12.15;6.22;;;;;;;27.35;66.82;96430.56;5035974;28;20204;-69
2022/07/23 10:49:25;;;;;;;8.30;5.97;;;;;;;27.45;66.90;96415.06;5035943;28;20633;-69
2022/07/23 10:52:21;;;;;;;8.57;5.65;;;;;;;27.75;66.29;96412.25;5036013;28;20607;-69
2022/07/23 10:54:50;;;;;;;10.75;5.45;;;;;;;27.84;64.93;96402.47;5035841;28;20231;-69
2022/07/23 10:57:21;;;;;;;8.48;5.80;;;;;;;27.28;65.42;96403.00;5036091;28;20205;-69
2022/07/23 11:00:14;;;;;;;9.60;6.32;;;;;;;27.45;65.35;96393.41;5036198;28;20205;-69
2022/07/23 11:02:42;;;;;;;9.23;5.97;;;;;;;27.29;66.22;96401.88;5034892;28;20220;-69
2022/07/23 11:05:11;;;;;;;9.98;6.13;;;;;;;27.80;65.49;96406.78;5035456;28;20205;-69
2022/07/23 11:08:14;;;;;;;8.40;4.90;;;;;;;28.29;63.48;96399.44;5036321;28;20217;-69
2022/07/23 11:10:44;;;;;;;7.63;5.20;;;;;;;28.08;66.39;96403.34;5033948;28;20205;-69
2022/07/23 11:13:43;;;;;;;8.43;4.75;;;;;;;27.85;62.76;96406.75;5035086;28;20673;-69
2022/07/23 11:16:22;;;;;;;9.25;5.90;;;;;;;28.17;63.24;96402.53;5030192;28;20236;-69
2022/07/23 11:19:09;;;;;;;11.80;5.63;;;;;;;28.36;63.44;96390.69;5035843;28;20213;-68
2022/07/23 11:21:50;;;;;;;8.98;6.30;;;;;;;28.60;62.63;96388.03;5035993;28;21134;-69
2022/07/23 11:24:19;;;;;;;12.02;6.10;;;;;;;29.17;62.41;96394.25;5035724;28;20201;-69
2022/07/23 11:26:49;;;;;;;9.02;5.30;;;;;;;28.53;60.30;96396.50;5036501;28;20205;-70
2022/07/23 11:29:44;;;;;;;11.60;5.43;;;;;;;28.32;60.52;96388.03;5040168;28;20212;-69
2022/07/23 11:32:25;;;;;;;9.27;5.40;;;;;;;28.80;59.54;96375.13;5039965;28;20225;-69